Goetzville, MI

5:08 PM EST on February 08, 2016 (GMT -0500)
Sterling Bay, Lake Huron | | Change Station
CLOSE
Current Station
Personal Weather Station
Location: Hilton Beach, ONTARIO
Elevation: 620 ft
Nearby Weather Stations

Elev 620 ft 46.11 °N, 83.89 °W | Updated 12 minutes ago

Fog
Fog
36.0 °F
Feels Like 36 °F
N
0.0
Wind Variable Wind from ENE

Today
High -- | Low -- °F
--% Chance of Precip.
Yesterday
High -- | Low -- °F
Precip. -- in
Pressure 29.60 in
Visibility 0.5 miles
Clouds Overcast 200 ft
Windchill 36 °F
Dew Point 35 °F
Humidity 96%
Rainfall 0.02 in
Snow Depth Not available.
7:50 AM 5:51 PM
New Moon, 0% visible
METAR KDRM 082155Z AUTO 06004KT 1/2SM FG OVC002 01/01 A2960 RMK AO2 T00080008
Pressure 29.60 in
Visibility 0.5 miles
Clouds Overcast 200 ft
Windchill 36 °F
Dew Point 35 °F
Humidity 96%
Rainfall 0.02 in
Snow Depth Not available.
7:50 AM 5:51 PM
New Moon, 0% visible
METAR KDRM 082155Z AUTO 06004KT 1/2SM FG OVC002 01/01 A2960 RMK AO2 T00080008

10-Day Weather Forecast

Almanac

Astronomy

Feb. 08, 2016 Rise Set
Actual Time
Civil Twilight
Nautical Twilight
Astronomical Twilight
Moon
Length of Visible Light
Length of Day
Tomorrow will be .
, % of the Moon is Illuminated

Today's Extremes

State Highs State Lows

Community

WunderPhotos

Upload Photos

1,891,511 photos uploaded!

WunderBlog® & News

Nearby

Air Quality

  Air Quality AQ Index Pollutant
Not available.

Snow Depth

Station Depth Elevation

Earthquake Activity

City Distance Mag. Time & Date
Minimum magnitude displayed is 2.5.

Coastal Water Temperatures

Place Temperature

Stations

Nearby Weather Stations

Station Location Temp. Windchill Dew Point Humidity Wind Precip. Elev Updated Type
                   

Watches & Warnings

There are currently no watches in effect.